Time;durP1;ratioP1;P1;durP2;ratioP2;P2;SDS_P1;SDS_P2;PMS_P1;PMS_P2;Temp;Humidity;BMP_temperature;BMP_pressure;BME280_temperature;BME280_humidity;BME280_pressure;Samples;Min_cycle;Max_cycle;Signal;HPM_P1;HPM_P2
2022/07/04 00:00:09;;;;;;;6.90;3.07;;;15.40;99.90;;;;;;5113080;28;20421;-66
2022/07/04 00:02:40;;;;;;;6.10;3.33;;;15.40;99.90;;;;;;5094787;28;20406;-66
2022/07/04 00:05:10;;;;;;;6.43;3.07;;;15.30;99.90;;;;;;5113098;28;20350;-66
2022/07/04 00:07:36;;;;;;;6.00;3.40;;;15.30;99.90;;;;;;5112817;28;20273;-66
2022/07/04 00:10:04;;;;;;;5.50;3.30;;;15.30;99.90;;;;;;5113146;28;20286;-66
2022/07/04 00:12:29;;;;;;;6.47;3.13;;;15.30;99.90;;;;;;5112828;28;20273;-67
2022/07/04 00:14:55;;;;;;;5.30;2.77;;;15.30;99.90;;;;;;5113168;28;20772;-66
2022/07/04 00:17:20;;;;;;;6.53;3.10;;;15.30;99.90;;;;;;5094799;28;20067;-66
2022/07/04 00:19:46;;;;;;;6.17;3.40;;;15.30;99.90;;;;;;5112972;28;20040;-66
2022/07/04 00:22:12;;;;;;;5.27;3.33;;;15.20;99.90;;;;;;5112919;28;20074;-66
2022/07/04 00:24:38;;;;;;;6.43;3.10;;;15.20;99.90;;;;;;5112667;28;20047;-67
2022/07/04 00:27:04;;;;;;;8.17;3.00;;;15.20;99.90;;;;;;5112875;28;20035;-66
2022/07/04 00:29:29;;;;;;;6.03;3.50;;;15.20;99.90;;;;;;5112611;28;20047;-67
2022/07/04 00:31:55;;;;;;;4.90;3.20;;;15.10;99.90;;;;;;5113147;28;20336;-66
2022/07/04 00:34:21;;;;;;;6.87;3.47;;;15.10;99.90;;;;;;5115349;28;20077;-66
2022/07/04 00:36:47;;;;;;;7.97;3.10;;;15.10;99.90;;;;;;5116656;28;20051;-66
2022/07/04 00:39:12;;;;;;;6.80;3.60;;;15.10;99.90;;;;;;5116440;28;20043;-66
2022/07/04 00:41:38;;;;;;;6.00;3.30;;;15.00;99.90;;;;;;5116188;28;20044;-66
2022/07/04 00:44:09;;;;;;;5.50;3.30;;;15.00;99.90;;;;;;5116379;28;20121;-66
2022/07/04 00:46:35;;;;;;;5.83;3.10;;;15.00;99.90;;;;;;5116165;28;20048;-66
2022/07/04 00:49:03;;;;;;;7.37;3.50;;;14.90;99.90;;;;;;5116285;28;20284;-66
2022/07/04 00:51:30;;;;;;;6.80;3.27;;;14.90;99.90;;;;;;5097677;28;20378;-69
2022/07/04 00:53:56;;;;;;;8.50;3.30;;;15.00;99.90;;;;;;5116172;28;20757;-66
2022/07/04 00:56:23;;;;;;;6.63;3.70;;;14.90;99.90;;;;;;5116380;28;20278;-66
2022/07/04 00:58:50;;;;;;;7.03;3.47;;;15.00;99.90;;;;;;5115775;28;20299;-66
2022/07/04 01:01:16;;;;;;;6.87;3.57;;;14.90;99.90;;;;;;5098108;28;20301;-66
2022/07/04 01:03:43;;;;;;;6.23;3.40;;;14.90;99.90;;;;;;5115723;28;20274;-66
2022/07/04 01:06:09;;;;;;;6.87;3.43;;;14.90;99.90;;;;;;5115975;28;20278;-66
2022/07/04 01:08:40;;;;;;;6.17;3.57;;;14.90;99.90;;;;;;5115674;28;20278;-66
2022/07/04 01:11:06;;;;;;;9.43;4.00;;;14.90;99.90;;;;;;5116002;28;20292;-66
2022/07/04 01:13:32;;;;;;;6.97;3.73;;;14.90;99.90;;;;;;5115704;28;20269;-71
2022/07/04 01:15:57;;;;;;;6.90;3.53;;;14.90;99.90;;;;;;5115767;28;20284;-66
2022/07/04 01:18:23;;;;;;;6.23;3.80;;;14.90;99.90;;;;;;5115651;28;20043;-66
2022/07/04 01:20:49;;;;;;;6.30;3.80;;;14.90;99.90;;;;;;5115157;28;20047;-66
2022/07/04 01:23:15;;;;;;;6.53;3.63;;;14.80;99.90;;;;;;5115589;28;20048;-66
2022/07/04 01:25:42;;;;;;;5.97;4.03;;;14.80;99.90;;;;;;5115452;28;20043;-66
2022/07/04 01:28:08;;;;;;;9.50;3.80;;;14.70;99.90;;;;;;5115777;28;20304;-66
2022/07/04 01:30:36;;;;;;;5.93;3.63;;;14.70;99.90;;;;;;5097080;28;20607;-68
2022/07/04 01:33:02;;;;;;;6.33;3.77;;;14.70;99.90;;;;;;5115454;28;20273;-66
2022/07/04 01:35:29;;;;;;;7.90;4.40;;;14.80;99.90;;;;;;5115397;28;20277;-66
2022/07/04 01:37:54;;;;;;;5.97;4.03;;;14.70;99.90;;;;;;5115016;28;20052;-66
2022/07/04 01:40:20;;;;;;;8.50;4.20;;;14.70;99.90;;;;;;5115498;28;20733;-66
2022/07/04 01:42:46;;;;;;;7.57;4.30;;;14.70;99.90;;;;;;5115028;28;20123;-66
2022/07/04 01:45:12;;;;;;;6.40;4.53;;;14.70;99.90;;;;;;5114268;28;20039;-66
2022/07/04 01:47:39;;;;;;;7.57;4.60;;;14.60;99.90;;;;;;5114945;28;20621;-67
2022/07/04 01:50:06;;;;;;;7.67;4.47;;;14.70;99.90;;;;;;5096962;28;20529;-66
2022/07/04 01:52:32;;;;;;;6.53;4.97;;;14.60;99.90;;;;;;5114841;28;20738;-66
2022/07/04 01:54:58;;;;;;;9.53;4.60;;;14.60;99.90;;;;;;5114755;28;20290;-66
2022/07/04 01:57:25;;;;;;;7.67;4.83;;;14.60;99.90;;;;;;5114913;28;20043;-66
2022/07/04 02:02:35;;;;;;;8.93;4.73;;;14.60;99.90;;;;;;5114719;28;20757;-66
2022/07/04 02:05:01;;;;;;;7.37;4.77;;;14.60;99.90;;;;;;5096620;28;20285;-66
2022/07/04 02:07:27;;;;;;;8.57;4.33;;;14.60;99.90;;;;;;5114797;28;20269;-66
2022/07/04 02:09:52;;;;;;;6.73;4.70;;;14.50;99.90;;;;;;5114478;28;20043;-66
2022/07/04 02:15:03;;;;;;;8.83;4.10;;;14.50;99.90;;;;;;5114431;28;20074;-66
2022/07/04 02:17:29;;;;;;;8.90;5.20;;;14.50;99.90;;;;;;5114655;28;20372;-66
2022/07/04 02:19:54;;;;;;;7.43;5.10;;;14.50;99.90;;;;;;5114259;28;20313;-66
2022/07/04 02:22:20;;;;;;;6.83;4.47;;;14.50;99.90;;;;;;5114453;28;20046;-66
2022/07/04 02:24:46;;;;;;;8.53;4.47;;;14.50;99.90;;;;;;5114188;28;20377;-66
2022/07/04 02:27:12;;;;;;;9.53;5.33;;;14.50;99.90;;;;;;5114405;28;20122;-66
2022/07/04 02:29:38;;;;;;;9.13;5.70;;;14.50;99.90;;;;;;5114467;28;20386;-66
2022/07/04 02:32:04;;;;;;;7.30;4.63;;;14.50;99.90;;;;;;5114064;28;20533;-66
2022/07/04 02:34:30;;;;;;;9.00;4.70;;;14.50;99.90;;;;;;5114184;28;20119;-66
2022/07/04 02:36:56;;;;;;;8.60;4.90;;;14.50;99.90;;;;;;5113899;28;20315;-66
2022/07/04 02:39:22;;;;;;;8.50;5.33;;;14.50;99.90;;;;;;5114202;28;20741;-66
2022/07/04 02:41:48;;;;;;;9.30;5.00;;;14.50;99.90;;;;;;5113826;28;20058;-67
2022/07/04 02:44:14;;;;;;;9.13;5.27;;;14.50;99.90;;;;;;5095862;28;20054;-66
2022/07/04 02:46:39;;;;;;;8.87;4.83;;;14.50;99.90;;;;;;5114170;28;20395;-66
2022/07/04 02:49:05;;;;;;;8.83;5.27;;;14.50;99.90;;;;;;5113943;28;20277;-66
2022/07/04 02:51:31;;;;;;;7.97;4.77;;;14.50;99.90;;;;;;5113540;28;20059;-66
2022/07/04 02:53:57;;;;;;;7.10;5.47;;;14.50;99.90;;;;;;5113687;28;20055;-66
2022/07/04 02:56:23;;;;;;;8.57;5.70;;;14.40;99.90;;;;;;5113451;28;20055;-66
2022/07/04 02:58:49;;;;;;;8.97;5.00;;;14.50;99.90;;;;;;5113540;28;20289;-66
2022/07/04 03:01:15;;;;;;;8.10;4.80;;;14.40;99.90;;;;;;5113784;28;20484;-66
2022/07/04 03:03:41;;;;;;;9.63;4.93;;;14.40;99.90;;;;;;5113792;28;20104;-66
2022/07/04 03:06:08;;;;;;;7.70;4.77;;;14.40;99.90;;;;;;5113402;28;20043;-66
2022/07/04 03:08:34;;;;;;;9.87;5.10;;;14.40;99.90;;;;;;5113712;28;20274;-66
2022/07/04 03:10:59;;;;;;;8.90;4.87;;;14.30;99.90;;;;;;5113375;28;20607;-66
2022/07/04 03:13:25;;;;;;;10.13;4.93;;;14.30;99.90;;;;;;5113661;28;20451;-66
2022/07/04 03:15:51;;;;;;;9.83;4.60;;;14.30;99.90;;;;;;5113363;28;20384;-67
2022/07/04 03:18:17;;;;;;;8.07;5.23;;;14.30;99.90;;;;;;5113558;28;20047;-66
2022/07/04 03:20:43;;;;;;;8.67;4.80;;;14.30;99.90;;;;;;5113559;28;20277;-66
2022/07/04 03:23:09;;;;;;;7.47;4.47;;;14.30;99.90;;;;;;5113257;28;20101;-66
2022/07/04 03:25:35;;;;;;;8.13;4.87;;;14.30;99.90;;;;;;5113615;28;20040;-66
2022/07/04 03:28:01;;;;;;;6.73;5.07;;;14.30;99.90;;;;;;5113162;28;20133;-66
2022/07/04 03:30:26;;;;;;;8.83;4.87;;;14.30;99.90;;;;;;5113573;28;20396;-67
2022/07/04 03:32:52;;;;;;;9.17;5.37;;;14.30;99.90;;;;;;5113244;28;20284;-67
2022/07/04 03:35:18;;;;;;;7.30;4.97;;;14.30;99.90;;;;;;5113336;28;20550;-67
2022/07/04 03:37:44;;;;;;;9.53;5.33;;;14.20;99.90;;;;;;5095157;28;20329;-67
2022/07/04 03:40:10;;;;;;;10.53;5.40;;;14.20;99.90;;;;;;5113112;28;20280;-67
2022/07/04 03:42:36;;;;;;;6.67;4.70;;;14.20;99.90;;;;;;5113355;28;20137;-66
2022/07/04 03:45:03;;;;;;;10.93;5.00;;;14.30;99.90;;;;;;5113132;28;20717;-67
2022/07/04 03:47:28;;;;;;;8.23;5.10;;;14.30;99.90;;;;;;5113233;28;20044;-67
2022/07/04 03:49:54;;;;;;;6.53;4.50;;;14.30;99.90;;;;;;5112744;28;20278;-67
2022/07/04 03:52:20;;;;;;;8.13;5.73;;;14.30;99.90;;;;;;5113557;28;20044;-67
2022/07/04 03:54:45;;;;;;;7.10;5.03;;;14.30;99.90;;;;;;5113342;28;20058;-67
2022/07/04 03:57:11;;;;;;;9.27;5.37;;;14.40;99.90;;;;;;5112787;28;20433;-67
2022/07/04 03:59:37;;;;;;;8.57;4.87;;;14.40;99.90;;;;;;5113183;28;20039;-67
2022/07/04 04:02:02;;;;;;;10.70;5.20;;;14.40;99.90;;;;;;5112792;28;20232;-67
2022/07/04 04:07:12;;;;;;;8.83;5.03;;;14.40;99.90;;;;;;5112833;28;20048;-67
2022/07/04 04:09:38;;;;;;;9.23;4.97;;;14.50;99.90;;;;;;5116158;28;20280;-66
2022/07/04 04:12:04;;;;;;;7.87;4.93;;;14.50;99.90;;;;;;5116779;28;20043;-67
2022/07/04 04:14:30;;;;;;;8.63;4.60;;;14.50;99.90;;;;;;5098934;28;20073;-67
2022/07/04 04:16:55;;;;;;;8.53;4.67;;;14.60;99.90;;;;;;5116587;28;20285;-66
2022/07/04 04:19:21;;;;;;;9.93;5.10;;;14.60;99.90;;;;;;5116918;28;20043;-67
2022/07/04 04:21:47;;;;;;;7.13;4.47;;;14.60;99.90;;;;;;5116875;28;20560;-67
2022/07/04 04:24:13;;;;;;;9.30;5.20;;;14.70;99.90;;;;;;5116568;28;20050;-67
2022/07/04 04:26:38;;;;;;;9.87;4.77;;;14.70;99.90;;;;;;5116792;28;20047;-67
2022/07/04 04:29:04;;;;;;;8.60;5.40;;;14.80;99.90;;;;;;5116508;28;20044;-67
2022/07/04 04:31:33;;;;;;;9.80;4.77;;;14.80;99.90;;;;;;5116721;28;20067;-67
2022/07/04 04:33:58;;;;;;;9.53;4.70;;;14.90;99.90;;;;;;5116378;28;20044;-67
2022/07/04 04:36:24;;;;;;;10.33;4.70;;;15.00;99.90;;;;;;5116488;28;20330;-67
2022/07/04 04:38:50;;;;;;;9.13;5.30;;;15.00;99.90;;;;;;5116484;28;20042;-67
2022/07/04 04:41:18;;;;;;;8.30;4.60;;;15.00;99.90;;;;;;5116221;28;20047;-67
2022/07/04 04:43:44;;;;;;;7.77;4.37;;;15.00;99.90;;;;;;5116485;28;20044;-67
2022/07/04 04:46:10;;;;;;;9.80;4.97;;;15.10;99.90;;;;;;5116366;28;20368;-66
2022/07/04 04:48:35;;;;;;;9.90;5.60;;;15.10;99.90;;;;;;5116555;28;20487;-66
2022/07/04 04:51:01;;;;;;;9.37;5.47;;;15.20;99.90;;;;;;5116232;28;20376;-67
2022/07/04 04:53:27;;;;;;;11.00;5.07;;;15.20;99.90;;;;;;5116211;28;20043;-67
2022/07/04 04:55:53;;;;;;;9.97;5.87;;;15.20;99.90;;;;;;5116192;28;20040;-66
2022/07/04 04:58:20;;;;;;;9.57;5.50;;;15.30;99.90;;;;;;5097605;28;20040;-67
2022/07/04 05:00:48;;;;;;;9.23;5.60;;;15.40;99.90;;;;;;5116084;28;20284;-66
2022/07/04 05:03:13;;;;;;;13.30;5.37;;;15.50;99.90;;;;;;5115887;28;20288;-66
2022/07/04 05:05:39;;;;;;;9.67;6.37;;;15.60;99.90;;;;;;5116156;28;20274;-67
2022/07/04 05:08:05;;;;;;;9.00;5.60;;;15.70;99.90;;;;;;5115652;28;20047;-67
2022/07/04 05:10:31;;;;;;;10.53;5.90;;;15.90;99.90;;;;;;5115886;28;20104;-67
2022/07/04 05:12:57;;;;;;;12.80;4.97;;;16.00;99.90;;;;;;5115526;28;20134;-67
2022/07/04 05:15:23;;;;;;;9.07;5.43;;;16.20;99.90;;;;;;5115609;28;20117;-67
2022/07/04 05:17:48;;;;;;;11.53;5.50;;;16.30;99.90;;;;;;5115701;28;20047;-67
2022/07/04 05:20:14;;;;;;;9.13;5.80;;;16.40;99.90;;;;;;5115125;28;20043;-67
2022/07/04 05:22:40;;;;;;;10.30;5.53;;;16.60;99.90;;;;;;5115978;28;20049;-67
2022/07/04 05:25:06;;;;;;;12.03;4.83;;;16.60;99.90;;;;;;5115387;28;20395;-67
2022/07/04 05:27:32;;;;;;;12.60;6.40;;;16.70;99.90;;;;;;5115635;28;20557;-67
2022/07/04 05:29:59;;;;;;;8.37;5.30;;;16.90;99.90;;;;;;5080743;28;20077;-67
2022/07/04 05:32:26;;;;;;;8.50;5.03;;;16.90;99.90;;;;;;5115244;28;20051;-67
2022/07/04 05:34:52;;;;;;;10.30;5.93;;;17.00;99.90;;;;;;5115656;28;20444;-67
2022/07/04 05:37:18;;;;;;;8.50;4.93;;;17.10;99.90;;;;;;5115122;28;20043;-67
2022/07/04 05:39:44;;;;;;;9.00;4.70;;;17.30;99.90;;;;;;5115402;28;20048;-67
2022/07/04 05:42:10;;;;;;;9.07;5.13;;;17.50;99.90;;;;;;5115153;28;20044;-67
2022/07/04 05:44:36;;;;;;;8.23;4.73;;;17.70;99.90;;;;;;5115394;28;20043;-67
2022/07/04 05:47:02;;;;;;;8.07;4.70;;;17.90;99.90;;;;;;5115300;28;20040;-67
2022/07/04 05:49:28;;;;;;;13.57;5.67;;;18.10;99.90;;;;;;5097168;28;20089;-67
2022/07/04 05:51:54;;;;;;;9.33;5.30;;;18.30;99.90;;;;;;5114772;28;20052;-67
2022/07/04 05:54:19;;;;;;;8.93;4.43;;;18.50;99.90;;;;;;5114825;28;20043;-67
2022/07/04 05:56:45;;;;;;;9.73;4.93;;;20.10;99.90;;;;;;5114966;28;20047;-67
2022/07/04 05:59:11;;;;;;;8.60;4.37;;;20.60;99.90;;;;;;5079976;28;20047;-67
2022/07/04 06:01:37;;;;;;;10.97;4.60;;;22.10;99.90;;;;;;5114981;28;20039;-67
2022/07/04 06:04:04;;;;;;;8.27;3.77;;;23.20;99.90;;;;;;5114910;28;20039;-67
2022/07/04 06:06:30;;;;;;;10.03;4.43;;;23.40;99.90;;;;;;5114952;28;20054;-67
2022/07/04 06:08:56;;;;;;;8.60;3.57;;;23.80;99.90;;;;;;5114809;28;20050;-65
2022/07/04 06:11:22;;;;;;;9.17;3.90;;;24.70;99.90;;;;;;5114215;28;20500;-65
2022/07/04 06:13:50;;;;;;;10.77;3.43;;;25.10;99.90;;;;;;5114667;28;20104;-65
2022/07/04 06:16:16;;;;;;;9.47;3.57;;;26.00;99.10;;;;;;5114377;28;20051;-65
2022/07/04 06:18:42;;;;;;;8.23;2.70;;;26.30;97.90;;;;;;5114577;28;20051;-65
2022/07/04 06:21:08;;;;;;;7.93;3.33;;;25.60;92.80;;;;;;5114343;28;20047;-66
2022/07/04 06:23:34;;;;;;;10.43;3.27;;;25.50;90.50;;;;;;5114686;28;20043;-65
2022/07/04 06:26:00;;;;;;;7.10;3.00;;;25.10;92.80;;;;;;5114522;28;20148;-65
2022/07/04 06:28:26;;;;;;;8.47;2.80;;;26.20;82.90;;;;;;5114238;28;20499;-65
2022/07/04 06:30:52;;;;;;;11.70;3.60;;;;;;;;;;5113689;28;20380;-65
2022/07/04 06:33:18;;;;;;;8.40;3.13;;;27.40;85.50;;;;;;5114081;28;20134;-65
2022/07/04 06:35:44;;;;;;;8.70;3.00;;;28.00;79.10;;;;;;5114298;28;20079;-65
2022/07/04 06:38:11;;;;;;;8.97;2.53;;;;;;;;;;5113866;28;20047;-65
2022/07/04 06:40:38;;;;;;;9.70;3.60;;;28.30;68.60;;;;;;5114250;28;20054;-65
2022/07/04 06:43:04;;;;;;;7.17;2.30;;;;;;;;;;5114172;28;20044;-65
2022/07/04 06:45:30;;;;;;;9.43;3.20;;;27.00;68.00;;;;;;5113897;28;20164;-65
2022/07/04 06:47:56;;;;;;;9.60;3.33;;;27.40;71.40;;;;;;5113995;28;20086;-65
2022/07/04 06:50:23;;;;;;;7.83;2.83;;;;;;;;;;5113230;28;20551;-65
2022/07/04 06:52:48;;;;;;;9.00;2.77;;;28.60;65.50;;;;;;5113867;28;20388;-65
2022/07/04 06:55:14;;;;;;;7.72;3.20;;;28.10;61.00;;;;;;5113643;28;20050;-65
2022/07/04 06:57:40;;;;;;;9.18;3.30;;;28.10;61.30;;;;;;5113775;28;20122;-65
2022/07/04 07:00:07;;;;;;;21.52;4.63;;;27.50;72.30;;;;;;5113816;28;20095;-65
2022/07/04 07:02:37;;;;;;;11.70;3.30;;;26.60;63.00;;;;;;5113526;28;20086;-66
2022/07/04 07:05:03;;;;;;;12.60;3.27;;;25.80;75.70;;;;;;5113852;28;20094;-66
2022/07/04 07:07:29;;;;;;;9.20;2.93;;;25.20;71.20;;;;;;5113524;28;20092;-67
2022/07/04 07:09:55;;;;;;;10.63;3.10;;;26.00;74.40;;;;;;5113940;28;20047;-67
2022/07/04 07:12:22;;;;;;;8.53;2.07;;;27.10;68.80;;;;;;5113707;28;20111;-67
2022/07/04 07:14:49;;;;;;;6.73;2.07;;;27.80;63.50;;;;;;5113588;28;20043;-67
2022/07/04 07:17:16;;;;;;;7.60;2.70;;;27.50;60.20;;;;;;5113186;28;20086;-68
2022/07/04 07:19:45;;;;;;;12.53;2.73;;;;;;;;;;5113574;28;20051;-67
2022/07/04 07:22:13;;;;;;;7.90;2.00;;;;;;;;;;5095674;28;20048;-67
2022/07/04 07:24:38;;;;;;;5.73;1.87;;;25.00;92.70;;;;;;5113341;28;20043;-66
2022/07/04 07:27:05;;;;;;;4.17;1.63;;;24.40;68.90;;;;;;5113692;28;20502;-66
2022/07/04 07:29:31;;;;;;;4.67;1.83;;;23.90;72.50;;;;;;5113225;28;20047;-66
2022/07/04 07:31:57;;;;;;;6.20;1.80;;;23.30;77.30;;;;;;5113526;28;20044;-66
2022/07/04 07:34:23;;;;;;;8.27;1.90;;;;;;;;;;5113215;28;20055;-66
2022/07/04 07:36:49;;;;;;;6.63;1.90;;;22.50;91.80;;;;;;5113350;28;20491;-66
2022/07/04 07:39:15;;;;;;;8.23;2.20;;;;;;;;;;5095412;28;20048;-66
2022/07/04 07:41:41;;;;;;;5.23;1.37;;;22.10;94.60;;;;;;5113249;28;20054;-66
2022/07/04 07:44:07;;;;;;;4.53;1.60;;;;;;;;;;5117448;28;20052;-66
2022/07/04 07:46:34;;;;;;;6.63;1.77;;;21.70;94.30;;;;;;5117368;28;20434;-69
2022/07/04 07:48:59;;;;;;;5.17;1.90;;;21.50;95.80;;;;;;5117567;28;20131;-67
2022/07/04 07:51:25;;;;;;;8.00;2.47;;;21.40;97.40;;;;;;5116779;28;20090;-67
2022/07/04 07:53:51;;;;;;;6.47;1.63;;;21.20;99.10;;;;;;5117598;28;20074;-67
2022/07/04 07:56:17;;;;;;;5.03;1.77;;;;;;;;;;5099356;28;20098;-68
2022/07/04 07:58:43;;;;;;;4.03;1.70;;;21.20;99.80;;;;;;5117573;28;20046;-68
2022/07/04 08:01:08;;;;;;;5.07;1.80;;;21.30;99.90;;;;;;5117321;28;20044;-67
2022/07/04 08:06:19;;;;;;;5.22;1.83;;;23.00;98.40;;;;;;5117271;28;20047;-67
2022/07/04 08:08:45;;;;;;;3.70;1.50;;;23.70;93.40;;;;;;5117173;28;20047;-68
2022/07/04 08:11:11;;;;;;;5.87;1.53;;;;;;;;;;5082080;28;20048;-68
2022/07/04 08:13:38;;;;;;;6.37;1.70;;;;;;;;;;5105148;28;20075;-67
2022/07/04 08:16:04;;;;;;;5.97;1.70;;;25.10;73.80;;;;;;5105609;28;20565;-68
2022/07/04 08:18:30;;;;;;;3.87;1.40;;;25.90;75.70;;;;;;5104889;28;20080;-68
2022/07/04 08:20:55;;;;;;;5.17;1.73;;;26.40;69.70;;;;;;5103847;28;20043;-69
2022/07/04 08:23:21;;;;;;;8.77;2.10;;;26.50;66.10;;;;;;5107262;28;20444;-71
2022/07/04 08:25:47;;;;;;;5.33;1.70;;;26.10;65.20;;;;;;5105593;28;20082;-69
2022/07/04 08:28:12;;;;;;;5.43;1.40;;;26.50;64.90;;;;;;5113756;28;20425;-69
2022/07/04 08:30:38;;;;;;;8.63;2.67;;;26.80;62.90;;;;;;5103996;28;20467;-69
2022/07/04 08:33:04;;;;;;;6.57;1.90;;;27.60;62.20;;;;;;5099577;28;20173;-68
2022/07/04 08:35:29;;;;;;;8.53;2.50;;;27.40;57.70;;;;;;5106884;28;20048;-68
2022/07/04 08:37:56;;;;;;;8.93;1.60;;;;;;;;;;5089017;28;20105;-68
2022/07/04 08:40:23;;;;;;;11.40;2.80;;;26.20;54.60;;;;;;5104135;28;20047;-68
2022/07/04 08:42:49;;;;;;;7.73;2.00;;;;;;;;;;5101413;28;20411;-68
2022/07/04 08:45:16;;;;;;;10.30;2.00;;;25.20;56.40;;;;;;5080553;28;20048;-68
2022/07/04 08:47:44;;;;;;;13.27;2.87;;;24.70;58.20;;;;;;5101797;28;20480;-69
2022/07/04 08:50:13;;;;;;;5.30;1.33;;;24.30;61.10;;;;;;5105835;28;20044;-68
2022/07/04 08:52:45;;;;;;;3.47;1.40;;;24.20;61.00;;;;;;5106722;28;20051;-68
2022/07/04 09:00:43;;;;;;;7.57;1.60;;;24.40;63.30;;;;;;5104470;28;20048;-72
2022/07/04 09:03:09;;;;;;;5.00;1.20;;;24.80;61.50;;;;;;5116151;28;20058;-71
2022/07/04 09:05:36;;;;;;;8.53;2.30;;;24.60;58.20;;;;;;5115746;28;20039;-73
2022/07/04 09:08:03;;;;;;;3.93;1.40;;;24.60;59.50;;;;;;5116091;28;20032;-74
2022/07/04 09:10:30;;;;;;;5.77;1.50;;;24.50;59.30;;;;;;5115664;28;20510;-73
2022/07/04 09:12:56;;;;;;;5.57;1.60;;;24.20;58.80;;;;;;5116018;28;20087;-71
2022/07/04 09:15:22;;;;;;;11.57;2.03;;;23.90;59.50;;;;;;5115945;28;20145;-75
2022/07/04 09:17:48;;;;;;;13.43;2.73;;;;;;;;;;5097484;28;20044;-76
2022/07/04 09:20:22;;;;;;;5.57;1.60;;;23.40;61.20;;;;;;5115972;28;20039;-74
2022/07/04 09:22:49;;;;;;;4.53;1.55;;;23.10;63.90;;;;;;5115544;28;20039;-68
2022/07/04 09:25:15;;;;;;;3.97;1.60;;;23.00;64.60;;;;;;5115725;28;20070;-73
2022/07/04 09:27:52;;;;;;;9.67;2.23;;;22.80;65.60;;;;;;5115507;28;20167;-73
2022/07/04 09:30:20;;;;;;;4.43;1.57;;;22.70;67.70;;;;;;5097546;28;20047;-73
2022/07/04 09:32:47;;;;;;;5.17;1.63;;;;;;;;;;5115245;28;20055;-73
2022/07/04 09:35:19;;;;;;;6.40;2.10;;;22.50;66.80;;;;;;5115174;28;20506;-73
2022/07/04 09:37:52;;;;;;;7.53;1.60;;;22.60;68.00;;;;;;5112360;28;20051;-72
2022/07/04 09:40:21;;;;;;;6.23;1.37;;;22.80;68.30;;;;;;5097930;28;20115;-70
2022/07/04 09:42:46;;;;;;;4.63;1.30;;;22.90;67.00;;;;;;5102871;28;20054;-69
2022/07/04 09:45:12;;;;;;;14.33;2.90;;;22.90;66.50;;;;;;5100250;28;20044;-67
2022/07/04 09:47:40;;;;;;;12.80;2.07;;;22.90;66.80;;;;;;5097262;28;20040;-67
2022/07/04 09:50:12;;;;;;;3.43;1.53;;;23.00;68.90;;;;;;5110121;28;20039;-67
2022/07/04 09:53:01;;;;;;;4.37;1.50;;;23.10;68.10;;;;;;5108630;28;20495;-71
2022/07/04 09:55:31;;;;;;;5.67;1.30;;;23.00;62.40;;;;;;5106023;28;20048;-67
2022/07/04 09:58:00;;;;;;;4.20;1.40;;;23.00;62.40;;;;;;5102597;28;20036;-67
2022/07/04 10:00:38;;;;;;;3.70;1.63;;;22.90;61.60;;;;;;5107582;28;20110;-66
2022/07/04 10:03:18;;;;;;;4.63;1.60;;;22.90;61.70;;;;;;5087393;28;20055;-67
2022/07/04 10:06:20;;;;;;;4.00;1.27;;;22.80;61.80;;;;;;5096029;28;20051;-66
2022/07/04 10:08:46;;;;;;;8.23;1.73;;;22.70;62.30;;;;;;5088831;28;20051;-67
2022/07/04 10:11:12;;;;;;;5.93;1.50;;;;;;;;;;5072229;28;20052;-66
2022/07/04 10:13:39;;;;;;;3.20;1.40;;;22.70;62.70;;;;;;5103512;28;20035;-66
2022/07/04 10:16:06;;;;;;;9.80;2.43;;;22.70;65.10;;;;;;5086795;28;20089;-66
2022/07/04 10:18:32;;;;;;;5.27;1.67;;;22.70;66.40;;;;;;5089343;28;20040;-69
2022/07/04 10:20:57;;;;;;;9.30;1.93;;;22.60;66.20;;;;;;5105267;28;20055;-69
2022/07/04 10:23:29;;;;;;;6.23;1.50;;;22.70;65.30;;;;;;5108682;28;20142;-71
2022/07/04 10:25:55;;;;;;;4.67;1.60;;;22.60;63.40;;;;;;5108360;28;20044;-69
2022/07/04 10:28:21;;;;;;;3.67;1.30;;;22.60;63.20;;;;;;5108346;28;20044;-69
2022/07/04 10:30:51;;;;;;;9.50;1.67;;;22.60;64.00;;;;;;5096373;28;20115;-69
2022/07/04 10:33:21;;;;;;;5.73;1.80;;;22.60;64.10;;;;;;5097265;28;20112;-68
2022/07/04 10:35:56;;;;;;;7.97;2.23;;;22.60;61.80;;;;;;5104566;28;20044;-69
2022/07/04 10:38:26;;;;;;;5.03;1.27;;;22.60;62.40;;;;;;5099417;28;20044;-66
2022/07/04 10:40:59;;;;;;;6.07;1.30;;;22.70;61.10;;;;;;5085884;28;20040;-66
2022/07/04 10:43:25;;;;;;;5.27;1.50;;;22.70;60.60;;;;;;5109124;28;20070;-67
2022/07/04 10:45:52;;;;;;;3.73;1.17;;;22.70;59.40;;;;;;5106291;28;20395;-66
2022/07/04 10:48:24;;;;;;;3.63;1.20;;;22.70;59.70;;;;;;5107223;28;20042;-67
2022/07/04 10:51:01;;;;;;;4.03;1.40;;;22.70;58.20;;;;;;5112166;28;20051;-67
2022/07/04 10:53:27;;;;;;;4.70;1.30;;;22.60;58.90;;;;;;5103531;28;20079;-71
2022/07/04 10:55:53;;;;;;;3.83;1.37;;;22.50;60.00;;;;;;5086829;28;20436;-67
2022/07/04 10:58:38;;;;;;;5.57;1.37;;;22.50;60.50;;;;;;5075479;28;20083;-67
2022/07/04 11:01:11;;;;;;;3.33;1.20;;;22.40;60.50;;;;;;5093282;28;20055;-67
2022/07/04 11:03:49;;;;;;;2.27;1.30;;;22.30;60.00;;;;;;5093461;28;20131;-67
2022/07/04 11:06:46;;;;;;;2.30;1.30;;;22.30;59.30;;;;;;5075667;28;20116;-67
2022/07/04 11:09:15;;;;;;;9.40;1.70;;;22.30;59.90;;;;;;5081264;28;20047;-67
2022/07/04 11:11:59;;;;;;;5.57;1.50;;;;;;;;;;5093450;28;20526;-67
2022/07/04 11:14:35;;;;;;;5.72;1.70;;;;;;;;;;5093507;28;20058;-67
2022/07/04 11:17:01;;;;;;;5.37;1.60;;;;;;;;;;5092893;28;20051;-64
2022/07/04 11:19:27;;;;;;;5.70;1.67;;;;;;;;;;5078107;28;20060;-68
2022/07/04 11:21:55;;;;;;;5.10;1.60;;;;;;;;;;5100822;28;20078;-67
2022/07/04 11:24:21;;;;;;;6.93;1.90;;;;;;;;;;5093134;28;20055;-67
2022/07/04 11:26:47;;;;;;;4.60;1.60;;;;;;;;;;5094517;28;20131;-68
2022/07/04 11:29:14;;;;;;;4.90;1.63;;;;;;;;;;5105188;28;20040;-67
2022/07/04 11:31:41;;;;;;;5.10;1.73;;;;;;;;;;5098483;28;20048;-67
2022/07/04 11:34:07;;;;;;;4.67;1.77;;;;;;;;;;5104159;28;20047;-68
2022/07/04 11:36:33;;;;;;;5.23;1.67;;;;;;;;;;5081628;28;20052;-67
2022/07/04 11:39:04;;;;;;;7.00;2.17;;;;;;;;;;5085988;28;20040;-67
2022/07/04 11:47:15;;;;;;;7.83;1.70;;;;;;;;;;5112952;28;20059;-66
2022/07/04 11:49:44;;;;;;;7.13;1.60;;;;;;;;;;5095363;28;20104;-67
2022/07/04 11:52:10;;;;;;;6.07;1.50;;;22.10;95.20;;;;;;5112583;28;20101;-67
2022/07/04 11:54:38;;;;;;;6.13;2.00;;;22.00;92.10;;;;;;5113226;28;20043;-67
2022/07/04 11:57:27;;;;;;;4.97;1.50;;;21.90;65.40;;;;;;5112759;28;20047;-66
2022/07/04 11:59:53;;;;;;;8.80;1.80;;;21.80;64.60;;;;;;5112945;28;20052;-66
2022/07/04 12:02:19;;;;;;;7.80;2.23;;;21.80;92.50;;;;;;5113101;28;20048;-67
2022/07/04 12:04:45;;;;;;;9.97;2.00;;;21.80;92.40;;;;;;5113115;28;20054;-67
2022/07/04 12:07:12;;;;;;;10.07;2.20;;;;;;;;;;5094593;28;20062;-67
2022/07/04 12:09:39;;;;;;;3.53;1.50;;;22.00;91.90;;;;;;5113078;28;20130;-67
2022/07/04 12:12:05;;;;;;;6.03;1.80;;;21.90;83.30;;;;;;5112824;28;20043;-66
2022/07/04 12:14:30;;;;;;;6.37;1.60;;;21.80;81.60;;;;;;5113184;28;20044;-66
2022/07/04 12:17:13;;;;;;;6.40;1.80;;;21.80;81.20;;;;;;5112712;28;20066;-67
2022/07/04 12:19:50;;;;;;;4.43;1.23;;;21.90;79.70;;;;;;5112968;28;20046;-67
2022/07/04 12:22:34;;;;;;;5.27;1.70;;;21.90;79.10;;;;;;5113142;28;20044;-67
2022/07/04 12:25:01;;;;;;;4.93;1.60;;;21.70;61.50;;;;;;5112825;28;20048;-67
2022/07/04 12:27:27;;;;;;;4.87;1.70;;;21.60;61.50;;;;;;5094776;28;20043;-67
2022/07/04 12:29:54;;;;;;;5.77;1.33;;;21.60;61.60;;;;;;5114406;28;20035;-68
2022/07/04 12:32:21;;;;;;;11.37;2.50;;;21.60;61.60;;;;;;5116901;28;20051;-67
2022/07/04 12:34:47;;;;;;;3.60;1.70;;;21.60;61.30;;;;;;5116409;28;20522;-69
2022/07/04 12:37:16;;;;;;;4.60;1.23;;;21.50;60.60;;;;;;5116294;28;20040;-67
2022/07/04 12:39:43;;;;;;;4.83;1.10;;;21.50;60.30;;;;;;5116632;28;20086;-67
2022/07/04 12:42:18;;;;;;;3.87;1.20;;;21.50;59.60;;;;;;5116267;28;20044;-67
2022/07/04 12:44:45;;;;;;;3.73;1.40;;;21.50;59.90;;;;;;5116378;28;20380;-67
2022/07/04 12:47:12;;;;;;;3.80;1.37;;;21.40;60.20;;;;;;5116171;28;20048;-67
2022/07/04 12:49:43;;;;;;;2.93;1.20;;;21.40;60.30;;;;;;5116299;28;20086;-67
2022/07/04 12:52:15;;;;;;;2.37;1.20;;;21.30;60.20;;;;;;5116343;28;20438;-67
2022/07/04 12:54:41;;;;;;;2.43;1.33;;;21.30;60.50;;;;;;5116217;28;20506;-67
2022/07/04 12:57:08;;;;;;;3.33;1.20;;;21.30;59.00;;;;;;5116019;28;20190;-67
2022/07/04 12:59:34;;;;;;;5.00;1.30;;;21.30;58.50;;;;;;5116211;28;20082;-66
2022/07/04 13:02:00;;;;;;;7.00;1.63;;;21.30;59.50;;;;;;5115995;28;20079;-68
2022/07/04 13:04:26;;;;;;;3.80;1.20;;;21.30;59.80;;;;;;5116319;28;20502;-67
2022/07/04 13:06:51;;;;;;;4.30;1.43;;;21.30;60.80;;;;;;5116118;28;20215;-67
2022/07/04 13:09:17;;;;;;;5.93;1.70;;;21.40;62.20;;;;;;5115765;28;20035;-67
2022/07/04 13:14:27;;;;;;;2.33;1.20;;;21.40;62.50;;;;;;5116136;28;20047;-66
2022/07/04 13:16:53;;;;;;;4.10;1.30;;;21.50;62.90;;;;;;5115802;28;20035;-66
2022/07/04 13:19:18;;;;;;;7.43;1.63;;;21.50;63.20;;;;;;5115525;28;20500;-66